Houghton County Memorial Airport Hancock US
ICAO: KCMX
IATA: CMX
Category: Medium
Scheduled Services: Yes

Elevation: 1095 ft
TransAlt. 18000 ft.

Airport Communications:
ASOS:125.675
MINNEAPOLIS CNTR:127.2
GREEN BAY RDO:122.525
CTAF/UNICOM:122.7

KCMX Zoom In..

Runways:

(A) RW 07 length 5201 ft width 100 ft
---- / hdg 69

(B) RW 13 length 6500 ft width 150 ft
---- / hdg 133

(C) RW 25 length 5201 ft width 100 ft
---- / hdg 249

(D) RW 31 length 6500 ft width 150 ft
ILS 110.30 / hdg 313

Location; KCMX
Day. 11 / Time. 19.53 Zulu
* Altimeter: 29.88
* Temperature: 24° c. 75.2°f.
* Wind from: 310° Speed 08 kn.
Dewpoint: 14° c.
Visibility: 10 Statute Miles.
Clouds: Overcast 5500 ft.

KCMX 111953Z AUTO 31008KT 10SM OVC055 24/14 A2988 RMK AO2 SLP115 T02390144

Going to: --> -->


Wind From 310°
Speed 08 kn.

 
 
jpsmedia worldairports.se 2020   terms of use